createdAt,value
2018-08-17T00:02:01.770Z,20.64
2018-08-17T00:04:28.176Z,20.64
2018-08-17T00:06:54.511Z,20.65
2018-08-17T00:09:20.827Z,20.63
2018-08-17T00:11:47.134Z,20.65
2018-08-17T00:14:13.451Z,20.66
2018-08-17T00:16:39.759Z,20.63
2018-08-17T00:19:06.074Z,20.54
2018-08-17T00:21:32.395Z,20.45
2018-08-17T00:23:58.704Z,20.39
2018-08-17T00:26:25.024Z,20.32
2018-08-17T00:28:51.341Z,20.31
2018-08-17T00:31:17.653Z,20.29
2018-08-17T00:33:43.964Z,20.26
2018-08-17T00:36:10.267Z,20.21
2018-08-17T00:38:36.597Z,20.12
2018-08-17T00:41:02.905Z,20.28
2018-08-17T00:43:29.212Z,20.24
2018-08-17T00:45:55.521Z,20.11
2018-08-17T00:48:21.842Z,20.03
2018-08-17T00:50:48.154Z,20.02
2018-08-17T00:53:14.462Z,20.17
2018-08-17T00:55:40.767Z,20.26
2018-08-17T00:58:07.082Z,20.28
2018-08-17T01:00:33.387Z,20.12
2018-08-17T01:02:59.700Z,20.10
2018-08-17T01:05:26.030Z,20.21
2018-08-17T01:07:52.345Z,20.22
2018-08-17T01:10:18.651Z,20.19
2018-08-17T01:12:44.976Z,20.21
2018-08-17T01:15:11.284Z,20.17
2018-08-17T01:17:37.597Z,20.27
2018-08-17T01:20:03.907Z,20.48
2018-08-17T01:22:30.226Z,20.64
2018-08-17T01:24:56.537Z,20.46
2018-08-17T01:27:22.849Z,20.34
2018-08-17T01:29:49.157Z,20.22
2018-08-17T01:32:15.520Z,20.25
2018-08-17T01:34:41.826Z,20.19
2018-08-17T01:37:08.126Z,20.10
2018-08-17T01:39:34.435Z,20.08
2018-08-17T01:42:00.748Z,20.13
2018-08-17T01:44:27.062Z,20.22
2018-08-17T01:46:53.371Z,20.33
2018-08-17T01:49:19.680Z,20.31
2018-08-17T01:51:45.986Z,20.27
2018-08-17T01:54:12.294Z,20.11
2018-08-17T01:56:38.641Z,20.11
2018-08-17T01:59:04.947Z,20.08
2018-08-17T02:01:31.259Z,20.28
2018-08-17T02:03:57.563Z,20.29
2018-08-17T02:06:23.873Z,20.34
2018-08-17T02:08:50.220Z,20.41
2018-08-17T02:11:16.530Z,20.53
2018-08-17T02:13:42.835Z,20.60
2018-08-17T02:16:09.153Z,20.82
2018-08-17T02:18:35.464Z,20.95
2018-08-17T02:21:01.813Z,20.85
2018-08-17T02:23:28.129Z,20.76
2018-08-17T02:25:54.443Z,20.85
2018-08-17T02:28:20.799Z,20.96
2018-08-17T02:30:47.111Z,21.13
2018-08-17T02:33:13.432Z,21.22
2018-08-17T02:35:39.745Z,21.08
2018-08-17T02:38:06.055Z,20.76
2018-08-17T02:40:32.369Z,20.59
2018-08-17T02:42:58.680Z,20.63
2018-08-17T02:45:24.995Z,20.59
2018-08-17T02:47:51.315Z,20.39
2018-08-17T02:50:17.620Z,20.33
2018-08-17T02:52:43.934Z,20.10
2018-08-17T02:55:10.239Z,19.93
2018-08-17T02:57:36.557Z,19.89
2018-08-17T03:00:02.869Z,19.89
2018-08-17T03:02:29.182Z,19.92
2018-08-17T03:04:55.498Z,19.96
2018-08-17T03:07:21.812Z,19.84
2018-08-17T03:09:48.132Z,19.72
2018-08-17T03:12:14.446Z,19.62
2018-08-17T03:14:40.810Z,19.57
2018-08-17T03:17:07.115Z,19.51
2018-08-17T03:19:33.422Z,19.51
2018-08-17T03:21:59.738Z,19.45
2018-08-17T03:24:26.050Z,19.50
2018-08-17T03:26:52.368Z,19.56
2018-08-17T03:29:18.677Z,19.58
2018-08-17T03:31:44.988Z,19.58
2018-08-17T03:34:11.292Z,19.58
2018-08-17T03:36:37.606Z,19.65
2018-08-17T03:39:03.920Z,19.80
2018-08-17T03:41:30.228Z,19.84
2018-08-17T03:43:56.541Z,19.92
2018-08-17T03:46:22.889Z,19.78
2018-08-17T03:48:49.209Z,19.78
2018-08-17T03:51:15.562Z,19.78
2018-08-17T03:53:41.888Z,19.76
2018-08-17T03:56:08.194Z,19.84
2018-08-17T03:58:34.505Z,20.05
2018-08-17T04:01:00.808Z,20.18
2018-08-17T04:03:27.129Z,20.34
2018-08-17T04:05:53.436Z,20.44
2018-08-17T04:08:19.754Z,20.35
2018-08-17T04:10:46.063Z,20.39
2018-08-17T04:13:12.371Z,20.49
2018-08-17T04:15:38.687Z,20.45
2018-08-17T04:18:05.030Z,20.06
2018-08-17T04:20:31.348Z,19.80
2018-08-17T04:22:57.659Z,19.56
2018-08-17T04:25:23.968Z,19.48
2018-08-17T04:27:50.275Z,19.46
2018-08-17T04:30:16.585Z,19.50
2018-08-17T04:32:42.890Z,19.54
2018-08-17T04:35:09.204Z,19.49
2018-08-17T04:37:35.519Z,19.55
2018-08-17T04:40:01.830Z,19.47
2018-08-17T04:42:28.184Z,19.43
2018-08-17T04:44:54.496Z,19.46
2018-08-17T04:47:20.847Z,19.51
2018-08-17T04:49:47.160Z,19.51
2018-08-17T04:52:13.475Z,19.65
2018-08-17T04:54:39.779Z,19.80
2018-08-17T04:57:06.086Z,19.87
2018-08-17T04:59:32.397Z,19.91
2018-08-17T05:01:58.707Z,19.99
2018-08-17T05:04:25.035Z,19.99
2018-08-17T05:06:51.323Z,19.95
2018-08-17T05:09:17.642Z,20.00
2018-08-17T05:11:43.952Z,20.04
2018-08-17T05:14:10.264Z,20.09
2018-08-17T05:16:36.573Z,20.25
2018-08-17T05:19:02.885Z,20.28
2018-08-17T05:21:29.253Z,20.39
2018-08-17T05:23:55.552Z,20.53
2018-08-17T05:26:21.869Z,20.65
2018-08-17T05:28:48.171Z,20.77
2018-08-17T05:31:14.483Z,21.00
2018-08-17T05:33:40.797Z,21.13
2018-08-17T05:36:07.128Z,21.33
2018-08-17T05:38:33.466Z,21.72
2018-08-17T05:40:59.780Z,21.84
2018-08-17T05:43:26.083Z,22.19
2018-08-17T05:45:52.400Z,22.45
2018-08-17T05:48:18.712Z,22.38
2018-08-17T05:50:45.029Z,22.40
2018-08-17T05:53:11.336Z,22.37
2018-08-17T05:55:37.649Z,22.65
2018-08-17T05:58:03.957Z,22.79
2018-08-17T06:00:30.259Z,22.83
2018-08-17T06:02:56.645Z,22.71
2018-08-17T06:05:22.886Z,22.83
2018-08-17T06:07:49.197Z,22.84
2018-08-17T06:10:15.508Z,22.97
2018-08-17T06:12:41.820Z,23.15
2018-08-17T06:15:08.132Z,23.15
2018-08-17T06:17:34.445Z,23.22
2018-08-17T06:20:00.757Z,23.30
2018-08-17T06:22:27.096Z,23.45
2018-08-17T06:24:53.405Z,23.45
2018-08-17T06:27:19.729Z,23.43
2018-08-17T06:29:46.041Z,23.57
2018-08-17T06:32:12.359Z,23.69
2018-08-17T06:34:38.668Z,24.72
2018-08-17T06:37:05.006Z,26.06
2018-08-17T06:39:31.303Z,26.69
2018-08-17T06:41:57.616Z,27.04
2018-08-17T06:44:23.923Z,26.24
2018-08-17T06:46:50.279Z,25.81
2018-08-17T06:49:16.584Z,25.36
2018-08-17T06:51:42.942Z,26.21
2018-08-17T06:54:09.257Z,27.28
2018-08-17T06:56:35.563Z,28.20
2018-08-17T06:59:01.875Z,28.76
2018-08-17T07:01:28.191Z,28.01
2018-08-17T07:03:54.503Z,28.21
2018-08-17T07:06:20.817Z,28.73
2018-08-17T07:08:47.148Z,28.41
2018-08-17T07:11:13.430Z,28.76
2018-08-17T07:13:39.746Z,28.88
2018-08-17T07:16:06.059Z,28.79
2018-08-17T07:18:32.367Z,29.38
2018-08-17T07:20:58.679Z,29.31
2018-08-17T07:23:24.982Z,29.21
2018-08-17T07:25:51.292Z,29.43
2018-08-17T07:28:17.644Z,29.44
2018-08-17T07:30:43.902Z,29.63
2018-08-17T07:33:10.219Z,29.81
2018-08-17T07:35:36.571Z,30.32
2018-08-17T07:38:02.881Z,30.26
2018-08-17T07:40:29.184Z,30.09
2018-08-17T07:42:55.509Z,30.02
2018-08-17T07:45:21.816Z,30.43
2018-08-17T07:47:48.184Z,30.42
2018-08-17T07:50:14.450Z,30.60
2018-08-17T07:52:40.765Z,30.65
2018-08-17T07:55:07.077Z,30.18
2018-08-17T07:57:33.400Z,30.08
2018-08-17T07:59:59.739Z,29.91
2018-08-17T08:02:26.049Z,30.16
2018-08-17T08:04:52.410Z,30.12
2018-08-17T08:07:18.722Z,30.45
2018-08-17T08:09:45.039Z,30.81
2018-08-17T08:12:11.348Z,31.02
2018-08-17T08:14:37.666Z,31.14
2018-08-17T08:17:03.969Z,31.45
2018-08-17T08:19:30.292Z,30.74
2018-08-17T08:21:56.602Z,30.70
2018-08-17T08:24:22.916Z,30.98
2018-08-17T08:26:49.225Z,31.16
2018-08-17T08:29:15.531Z,31.64
2018-08-17T08:31:41.844Z,31.82
2018-08-17T08:34:08.155Z,31.28
2018-08-17T08:36:34.464Z,31.30
2018-08-17T08:39:00.783Z,31.62
2018-08-17T08:41:27.093Z,30.93
2018-08-17T08:43:53.403Z,31.12
2018-08-17T08:46:19.718Z,31.24
2018-08-17T08:48:46.113Z,30.90
2018-08-17T08:51:12.383Z,31.47
2018-08-17T08:53:38.693Z,31.90
2018-08-17T08:56:05.045Z,32.31
2018-08-17T08:58:31.307Z,32.34
2018-08-17T09:00:57.624Z,32.51
2018-08-17T09:03:23.942Z,32.97
2018-08-17T09:05:50.253Z,32.88
2018-08-17T09:08:16.648Z,32.81
2018-08-17T09:10:42.869Z,33.29
2018-08-17T09:13:09.175Z,33.44
2018-08-17T09:15:35.484Z,32.93
2018-08-17T09:18:01.792Z,33.19
2018-08-17T09:20:28.202Z,33.65
2018-08-17T09:22:54.412Z,33.20
2018-08-17T09:25:20.724Z,33.10
2018-08-17T09:27:47.037Z,33.68
2018-08-17T09:30:13.497Z,33.62
2018-08-17T09:32:39.656Z,32.58
2018-08-17T09:35:05.974Z,32.59
2018-08-17T09:37:32.288Z,32.56
2018-08-17T09:39:58.595Z,33.18
2018-08-17T09:42:24.906Z,33.00
2018-08-17T09:44:51.251Z,33.11
2018-08-17T09:47:17.561Z,33.04
2018-08-17T09:49:43.868Z,32.94
2018-08-17T09:52:10.245Z,33.67
2018-08-17T09:54:36.547Z,34.02
2018-08-17T09:57:02.855Z,33.77
2018-08-17T09:59:29.165Z,34.16
2018-08-17T10:01:55.484Z,34.04
2018-08-17T10:04:21.834Z,33.69
2018-08-17T10:06:48.145Z,33.39
2018-08-17T10:09:14.493Z,33.37
2018-08-17T10:11:40.806Z,33.78
2018-08-17T10:14:07.157Z,34.04
2018-08-17T10:16:33.472Z,33.49
2018-08-17T10:18:59.824Z,34.28
2018-08-17T10:21:26.454Z,34.83
2018-08-17T10:23:52.447Z,34.57
2018-08-17T10:26:18.763Z,34.78
2018-08-17T10:28:45.073Z,35.02
2018-08-17T10:31:11.391Z,35.43
2018-08-17T10:33:37.696Z,34.49
2018-08-17T10:36:04.014Z,33.52
2018-08-17T10:38:30.323Z,31.93
2018-08-17T10:40:56.672Z,31.77
2018-08-17T10:43:22.977Z,31.30
2018-08-17T10:45:49.289Z,31.02
2018-08-17T10:48:15.600Z,30.61
2018-08-17T10:50:41.913Z,30.30
2018-08-17T10:53:08.228Z,30.06
2018-08-17T10:55:34.564Z,29.80
2018-08-17T10:58:00.840Z,29.82
2018-08-17T11:00:27.187Z,29.85
2018-08-17T11:02:53.500Z,30.04
2018-08-17T11:05:19.846Z,29.90
2018-08-17T11:07:46.151Z,29.99
2018-08-17T11:10:12.468Z,29.74
2018-08-17T11:12:38.778Z,29.55
2018-08-17T11:15:05.088Z,29.55
2018-08-17T11:17:31.398Z,29.52
2018-08-17T11:19:57.743Z,29.63
2018-08-17T11:22:24.063Z,29.48
2018-08-17T11:24:50.371Z,29.38
2018-08-17T11:27:16.683Z,29.37
2018-08-17T11:29:43.031Z,29.47
2018-08-17T11:32:09.368Z,29.51
2018-08-17T11:34:35.673Z,29.57
2018-08-17T11:37:01.985Z,29.53
2018-08-17T11:39:28.294Z,29.44
2018-08-17T11:41:54.611Z,29.19
2018-08-17T11:44:20.975Z,29.17
2018-08-17T11:46:47.288Z,29.19
2018-08-17T11:49:13.610Z,29.07
2018-08-17T11:51:39.921Z,29.10
2018-08-17T11:54:06.273Z,28.96
2018-08-17T11:56:32.588Z,29.00
2018-08-17T11:58:58.895Z,29.02
2018-08-17T12:01:25.209Z,29.02
2018-08-17T12:03:51.523Z,29.21
2018-08-17T12:06:17.837Z,29.13
2018-08-17T12:08:44.205Z,29.24
2018-08-17T12:11:10.507Z,30.16
2018-08-17T12:13:36.860Z,31.02
2018-08-17T12:16:03.169Z,31.36
2018-08-17T12:18:29.536Z,31.17
2018-08-17T12:20:55.844Z,30.66
2018-08-17T12:23:22.152Z,30.47
2018-08-17T12:25:48.502Z,30.23
2018-08-17T12:28:14.815Z,29.90
2018-08-17T12:30:41.124Z,30.59
2018-08-17T12:33:07.447Z,31.49
2018-08-17T12:35:33.799Z,32.06
2018-08-17T12:38:00.113Z,31.28
2018-08-17T12:40:26.431Z,30.52
2018-08-17T12:42:52.778Z,30.50
2018-08-17T12:45:19.089Z,30.27
2018-08-17T12:47:45.407Z,29.99
2018-08-17T12:50:11.730Z,29.72
2018-08-17T12:52:38.057Z,29.88
2018-08-17T12:55:04.370Z,30.30
2018-08-17T12:57:30.743Z,30.92
2018-08-17T12:59:57.066Z,30.66
2018-08-17T13:02:23.377Z,30.80
2018-08-17T13:04:49.687Z,30.76
2018-08-17T13:07:15.997Z,30.27
2018-08-17T13:09:42.349Z,29.39
2018-08-17T13:12:08.663Z,28.23
2018-08-17T13:14:34.988Z,27.35
2018-08-17T13:17:01.294Z,26.98
2018-08-17T13:19:27.609Z,26.90
2018-08-17T13:21:53.932Z,26.84
2018-08-17T13:24:20.248Z,26.65
2018-08-17T13:26:46.568Z,26.47
2018-08-17T13:29:12.910Z,26.27
2018-08-17T13:31:39.225Z,26.24
2018-08-17T13:34:05.542Z,26.19
2018-08-17T13:36:31.856Z,26.18
2018-08-17T13:38:58.161Z,26.18
2018-08-17T13:41:24.477Z,25.80
2018-08-17T13:43:50.791Z,25.32
2018-08-17T13:46:17.135Z,25.27
2018-08-17T13:48:43.452Z,25.07
2018-08-17T13:51:09.779Z,24.98
2018-08-17T13:53:36.116Z,24.72
2018-08-17T13:56:02.440Z,24.53
2018-08-17T13:58:28.746Z,24.54
2018-08-17T14:00:55.060Z,24.82
2018-08-17T14:03:21.369Z,25.05
2018-08-17T14:05:47.686Z,25.26
2018-08-17T14:08:14.036Z,25.20
2018-08-17T14:10:40.323Z,25.54
2018-08-17T14:13:06.633Z,25.64
2018-08-17T14:15:32.966Z,25.73
2018-08-17T14:17:59.272Z,25.78
2018-08-17T14:20:25.595Z,25.78
2018-08-17T14:22:51.904Z,25.84
2018-08-17T14:25:18.226Z,25.87
2018-08-17T14:27:44.549Z,25.89
2018-08-17T14:30:10.914Z,25.82
2018-08-17T14:32:37.221Z,25.90
2018-08-17T14:35:03.588Z,26.01
2018-08-17T14:37:29.864Z,25.82
2018-08-17T14:39:56.176Z,25.69
2018-08-17T14:42:22.530Z,25.56
2018-08-17T14:44:48.854Z,25.73
2018-08-17T14:47:15.186Z,25.88
2018-08-17T14:49:41.527Z,25.70
2018-08-17T14:52:07.808Z,25.67
2018-08-17T14:54:34.125Z,25.64
2018-08-17T14:57:00.433Z,25.56
2018-08-17T14:59:26.743Z,25.69
2018-08-17T15:01:53.056Z,25.86
2018-08-17T15:04:19.365Z,26.11
2018-08-17T15:06:45.721Z,26.16
2018-08-17T15:09:12.037Z,26.06
2018-08-17T15:11:38.343Z,25.90
2018-08-17T15:14:04.651Z,25.87
2018-08-17T15:16:30.961Z,25.83
2018-08-17T15:18:57.272Z,25.73
2018-08-17T15:21:23.584Z,25.64
2018-08-17T15:23:49.896Z,25.65
2018-08-17T15:26:16.243Z,25.61
2018-08-17T15:28:42.685Z,25.58
2018-08-17T15:31:08.926Z,25.42
2018-08-17T15:33:35.231Z,25.27
2018-08-17T15:36:01.559Z,25.28
2018-08-17T15:38:27.867Z,25.21
2018-08-17T15:40:54.257Z,25.05
2018-08-17T15:43:20.501Z,24.90
2018-08-17T15:45:46.817Z,24.79
2018-08-17T15:48:13.132Z,24.69
2018-08-17T15:50:39.444Z,24.54
2018-08-17T15:53:05.747Z,24.52
2018-08-17T15:55:32.106Z,24.48
2018-08-17T15:57:58.497Z,24.51
2018-08-17T16:00:24.737Z,24.50
2018-08-17T16:02:51.054Z,24.49
2018-08-17T16:05:17.360Z,24.54
2018-08-17T16:07:43.676Z,24.56
2018-08-17T16:10:09.984Z,24.53
2018-08-17T16:12:36.297Z,24.53
2018-08-17T16:15:02.611Z,24.50
2018-08-17T16:17:28.927Z,24.64
2018-08-17T16:19:55.235Z,24.67
2018-08-17T16:22:21.590Z,24.59
2018-08-17T16:24:47.986Z,24.57
2018-08-17T16:27:14.223Z,24.55
2018-08-17T16:29:40.530Z,24.56
2018-08-17T16:32:06.841Z,24.59
2018-08-17T16:34:33.150Z,24.62
2018-08-17T16:36:59.460Z,24.68
2018-08-17T16:39:25.770Z,24.60
2018-08-17T16:41:52.136Z,24.60
2018-08-17T16:44:18.446Z,24.58
2018-08-17T16:46:44.754Z,24.61
2018-08-17T16:49:11.099Z,24.66
2018-08-17T16:51:37.405Z,24.72
2018-08-17T16:54:03.721Z,24.80
2018-08-17T16:56:30.033Z,24.80
2018-08-17T16:58:56.447Z,24.75
2018-08-17T17:01:22.693Z,24.73
2018-08-17T17:03:49.008Z,24.80
2018-08-17T17:06:15.320Z,24.87
2018-08-17T17:08:41.654Z,24.88
2018-08-17T17:11:07.965Z,24.88
2018-08-17T17:13:34.267Z,24.85
2018-08-17T17:16:00.582Z,24.78
2018-08-17T17:18:26.896Z,24.74
2018-08-17T17:20:53.318Z,24.68
2018-08-17T17:23:19.548Z,24.65
2018-08-17T17:25:45.868Z,24.58
2018-08-17T17:28:12.182Z,24.52
2018-08-17T17:30:38.494Z,24.49
2018-08-17T17:33:04.798Z,24.45
2018-08-17T17:35:31.108Z,24.41
2018-08-17T17:37:57.419Z,24.38
2018-08-17T17:40:23.727Z,24.34
2018-08-17T17:42:50.038Z,24.36
2018-08-17T17:45:16.350Z,24.48
2018-08-17T17:47:42.656Z,24.65
2018-08-17T17:50:08.973Z,24.64
2018-08-17T17:52:35.279Z,24.53
2018-08-17T17:55:01.593Z,24.49
2018-08-17T17:57:27.931Z,24.42
2018-08-17T17:59:54.280Z,24.25
2018-08-17T18:02:20.587Z,24.15
2018-08-17T18:04:46.959Z,24.01
2018-08-17T18:07:13.213Z,23.95
2018-08-17T18:09:39.590Z,23.96
2018-08-17T18:12:05.895Z,23.91
2018-08-17T18:14:32.226Z,23.87
2018-08-17T18:16:58.542Z,23.87
2018-08-17T18:19:24.851Z,23.82
2018-08-17T18:21:51.177Z,23.75
2018-08-17T18:24:17.487Z,23.67
2018-08-17T18:26:43.812Z,23.61
2018-08-17T18:29:10.115Z,23.55
2018-08-17T18:31:36.423Z,23.62
2018-08-17T18:34:02.735Z,23.62
2018-08-17T18:36:29.112Z,23.77
2018-08-17T18:38:55.393Z,23.78
2018-08-17T18:41:21.703Z,23.64
2018-08-17T18:43:48.009Z,23.50
2018-08-17T18:46:14.341Z,23.45
2018-08-17T18:48:40.643Z,23.37
2018-08-17T18:51:06.957Z,23.41
2018-08-17T18:53:33.276Z,23.37
2018-08-17T18:55:59.583Z,23.25
2018-08-17T18:58:25.888Z,23.25
2018-08-17T19:00:52.205Z,23.19
2018-08-17T19:03:18.531Z,23.01
2018-08-17T19:05:44.844Z,22.95
2018-08-17T19:08:11.171Z,22.91
2018-08-17T19:10:37.497Z,22.82
2018-08-17T19:13:03.803Z,22.77
2018-08-17T19:15:30.137Z,22.70
2018-08-17T19:17:56.423Z,22.70
2018-08-17T19:20:22.730Z,22.70
2018-08-17T19:22:49.054Z,22.72
2018-08-17T19:25:15.371Z,22.67
2018-08-17T19:27:41.676Z,22.64
2018-08-17T19:30:08.038Z,22.53
2018-08-17T19:32:34.348Z,22.46
2018-08-17T19:35:00.674Z,22.30
2018-08-17T19:37:26.982Z,22.26
2018-08-17T19:39:53.309Z,22.21
2018-08-17T19:42:19.615Z,22.12
2018-08-17T19:44:46.794Z,22.15
2018-08-17T19:47:13.105Z,22.06
2018-08-17T19:49:39.432Z,22.01
2018-08-17T19:52:05.745Z,21.96
2018-08-17T19:54:32.065Z,21.95
2018-08-17T19:56:58.383Z,21.88
2018-08-17T19:59:24.907Z,21.82
2018-08-17T20:01:51.221Z,21.77
2018-08-17T20:04:17.543Z,21.81
2018-08-17T20:06:43.859Z,21.73
2018-08-17T20:09:10.187Z,21.70
2018-08-17T20:11:36.491Z,21.63
2018-08-17T20:14:02.800Z,21.66
2018-08-17T20:16:29.106Z,21.67
2018-08-17T20:18:55.411Z,21.61
2018-08-17T20:21:21.717Z,21.59
2018-08-17T20:23:48.027Z,21.48
2018-08-17T20:26:14.367Z,21.28
2018-08-17T20:28:40.648Z,21.19
2018-08-17T20:31:06.957Z,21.16
2018-08-17T20:33:33.264Z,21.14
2018-08-17T20:35:59.575Z,21.17
2018-08-17T20:38:25.896Z,21.29
2018-08-17T20:40:52.219Z,21.30
2018-08-17T20:43:18.533Z,21.28
2018-08-17T20:45:44.839Z,21.31
2018-08-17T20:48:11.144Z,21.24
2018-08-17T20:50:37.470Z,21.22
2018-08-17T20:53:03.805Z,21.26
2018-08-17T20:55:30.117Z,21.22
2018-08-17T20:57:56.425Z,21.25
2018-08-17T21:00:22.777Z,21.29
2018-08-17T21:02:49.067Z,21.28
2018-08-17T21:05:15.380Z,21.18
2018-08-17T21:07:41.696Z,21.07
2018-08-17T21:10:08.048Z,20.89
2018-08-17T21:12:34.361Z,20.80
2018-08-17T21:15:00.666Z,20.71
2018-08-17T21:17:26.978Z,20.62
2018-08-17T21:19:53.283Z,20.55
2018-08-17T21:22:19.591Z,20.54
2018-08-17T21:24:45.900Z,20.65
2018-08-17T21:27:12.212Z,20.56
2018-08-17T21:29:38.667Z,20.30
2018-08-17T21:32:04.867Z,20.20
2018-08-17T21:34:31.221Z,20.19
2018-08-17T21:36:57.528Z,20.25
2018-08-17T21:39:23.849Z,20.27
2018-08-17T21:41:50.248Z,20.43
2018-08-17T21:44:16.480Z,20.69
2018-08-17T21:46:42.797Z,20.79
2018-08-17T21:49:09.103Z,20.91
2018-08-17T21:51:35.418Z,20.95
2018-08-17T21:54:01.731Z,20.93
2018-08-17T21:56:28.041Z,20.91
2018-08-17T21:58:54.348Z,20.88
2018-08-17T22:01:20.696Z,20.89
2018-08-17T22:03:47.011Z,20.69
2018-08-17T22:06:13.321Z,20.62
2018-08-17T22:08:39.630Z,20.54
2018-08-17T22:11:05.942Z,20.57
2018-08-17T22:13:32.247Z,20.67
2018-08-17T22:15:58.550Z,20.78
2018-08-17T22:18:24.908Z,20.88
2018-08-17T22:20:51.166Z,20.79
2018-08-17T22:23:17.471Z,20.65
2018-08-17T22:25:43.780Z,20.63
2018-08-17T22:28:10.092Z,20.63
2018-08-17T22:30:36.403Z,20.79
2018-08-17T22:33:02.713Z,20.72
2018-08-17T22:35:29.086Z,20.59
2018-08-17T22:37:55.333Z,20.67
2018-08-17T22:40:21.645Z,20.68
2018-08-17T22:42:47.988Z,20.48
2018-08-17T22:45:14.281Z,20.37
2018-08-17T22:47:40.593Z,20.27
2018-08-17T22:50:06.906Z,20.12
2018-08-17T22:52:33.222Z,19.93
2018-08-17T22:54:59.534Z,19.85
2018-08-17T22:57:25.845Z,19.82
2018-08-17T22:59:52.157Z,19.86
2018-08-17T23:02:18.467Z,19.81
2018-08-17T23:04:44.780Z,19.73
2018-08-17T23:07:11.091Z,19.65
2018-08-17T23:09:37.415Z,19.60
2018-08-17T23:12:03.723Z,19.79
2018-08-17T23:14:30.028Z,19.80
2018-08-17T23:16:56.343Z,19.65
2018-08-17T23:19:22.651Z,19.77
2018-08-17T23:21:48.964Z,19.74
2018-08-17T23:24:15.278Z,19.69
2018-08-17T23:26:41.588Z,19.70
2018-08-17T23:29:07.894Z,19.90
2018-08-17T23:31:34.207Z,19.97
2018-08-17T23:34:00.515Z,19.83
2018-08-17T23:36:26.830Z,19.75
2018-08-17T23:38:53.140Z,19.91
2018-08-17T23:41:19.460Z,19.83
2018-08-17T23:43:45.765Z,19.89
2018-08-17T23:46:12.083Z,20.01
2018-08-17T23:48:38.387Z,20.03
2018-08-17T23:51:04.700Z,20.06
2018-08-17T23:53:31.062Z,20.22
2018-08-17T23:55:57.352Z,20.14
2018-08-17T23:58:23.698Z,19.92
